sensor_id;sensor_type;location;lat;lon;timestamp;temperature;humidity
16728;DHT22;8482;54.396;18.590;2022-07-11T00:02:10;16.10;99.90
16728;DHT22;8482;54.396;18.590;2022-07-11T00:04:37;16.10;99.90
16728;DHT22;8482;54.396;18.590;2022-07-11T00:07:05;16.10;99.90
16728;DHT22;8482;54.396;18.590;2022-07-11T00:09:31;16.10;99.90
16728;DHT22;8482;54.396;18.590;2022-07-11T00:11:58;16.10;99.90
16728;DHT22;8482;54.396;18.590;2022-07-11T00:14:24;16.10;99.90
16728;DHT22;8482;54.396;18.590;2022-07-11T00:16:51;16.10;99.90
16728;DHT22;8482;54.396;18.590;2022-07-11T00:19:19;16.10;99.90
16728;DHT22;8482;54.396;18.590;2022-07-11T00:21:51;16.10;99.90
16728;DHT22;8482;54.396;18.590;2022-07-11T00:24:18;16.10;99.90
16728;DHT22;8482;54.396;18.590;2022-07-11T00:26:46;16.10;99.90
16728;DHT22;8482;54.396;18.590;2022-07-11T00:29:13;16.10;99.90
16728;DHT22;8482;54.396;18.590;2022-07-11T00:31:39;16.10;99.90
16728;DHT22;8482;54.396;18.590;2022-07-11T00:34:05;16.00;99.90
16728;DHT22;8482;54.396;18.590;2022-07-11T00:36:31;16.00;99.90
16728;DHT22;8482;54.396;18.590;2022-07-11T00:38:57;16.00;99.90
16728;DHT22;8482;54.396;18.590;2022-07-11T00:41:24;16.00;99.90
16728;DHT22;8482;54.396;18.590;2022-07-11T00:43:55;16.00;99.90
16728;DHT22;8482;54.396;18.590;2022-07-11T00:46:23;16.00;99.90
16728;DHT22;8482;54.396;18.590;2022-07-11T00:48:50;16.00;99.90
16728;DHT22;8482;54.396;18.590;2022-07-11T00:51:18;16.00;99.90
16728;DHT22;8482;54.396;18.590;2022-07-11T00:53:53;16.00;99.90
16728;DHT22;8482;54.396;18.590;2022-07-11T00:56:23;16.00;99.90
16728;DHT22;8482;54.396;18.590;2022-07-11T00:58:51;15.90;99.90
16728;DHT22;8482;54.396;18.590;2022-07-11T01:01:19;15.90;99.90
16728;DHT22;8482;54.396;18.590;2022-07-11T01:03:45;15.90;99.90
16728;DHT22;8482;54.396;18.590;2022-07-11T01:06:11;15.90;99.90
16728;DHT22;8482;54.396;18.590;2022-07-11T01:08:38;15.90;99.90
16728;DHT22;8482;54.396;18.590;2022-07-11T01:11:09;15.90;99.90
16728;DHT22;8482;54.396;18.590;2022-07-11T01:13:38;15.90;99.90
16728;DHT22;8482;54.396;18.590;2022-07-11T01:16:12;15.90;99.90
16728;DHT22;8482;54.396;18.590;2022-07-11T01:18:46;15.80;99.90
16728;DHT22;8482;54.396;18.590;2022-07-11T01:21:21;15.80;99.90
16728;DHT22;8482;54.396;18.590;2022-07-11T01:23:49;15.80;99.90
16728;DHT22;8482;54.396;18.590;2022-07-11T01:26:16;15.80;99.90
16728;DHT22;8482;54.396;18.590;2022-07-11T01:28:44;15.80;99.90
16728;DHT22;8482;54.396;18.590;2022-07-11T01:31:11;15.70;99.90
16728;DHT22;8482;54.396;18.590;2022-07-11T01:33:38;15.70;99.90
16728;DHT22;8482;54.396;18.590;2022-07-11T01:36:04;15.70;99.90
16728;DHT22;8482;54.396;18.590;2022-07-11T01:38:30;15.70;99.90
16728;DHT22;8482;54.396;18.590;2022-07-11T01:40:56;15.70;99.90
16728;DHT22;8482;54.396;18.590;2022-07-11T01:43:22;15.70;99.90
16728;DHT22;8482;54.396;18.590;2022-07-11T01:45:52;15.70;99.90
16728;DHT22;8482;54.396;18.590;2022-07-11T01:48:19;15.60;99.90
16728;DHT22;8482;54.396;18.590;2022-07-11T01:50:46;15.60;99.90
16728;DHT22;8482;54.396;18.590;2022-07-11T01:53:14;15.60;99.90
16728;DHT22;8482;54.396;18.590;2022-07-11T01:55:41;15.60;99.90
16728;DHT22;8482;54.396;18.590;2022-07-11T01:58:07;15.60;99.90
16728;DHT22;8482;54.396;18.590;2022-07-11T02:00:33;15.60;99.90
16728;DHT22;8482;54.396;18.590;2022-07-11T02:02:59;15.60;99.90
16728;DHT22;8482;54.396;18.590;2022-07-11T02:05:25;15.60;99.90
16728;DHT22;8482;54.396;18.590;2022-07-11T02:07:50;15.60;99.90
16728;DHT22;8482;54.396;18.590;2022-07-11T02:10:35;15.60;99.90
16728;DHT22;8482;54.396;18.590;2022-07-11T02:13:01;15.50;99.90
16728;DHT22;8482;54.396;18.590;2022-07-11T02:15:27;15.60;99.90
16728;DHT22;8482;54.396;18.590;2022-07-11T02:17:54;15.50;99.90
16728;DHT22;8482;54.396;18.590;2022-07-11T02:20:21;15.50;99.90
16728;DHT22;8482;54.396;18.590;2022-07-11T02:22:49;15.50;99.90
16728;DHT22;8482;54.396;18.590;2022-07-11T02:25:16;15.50;99.90
16728;DHT22;8482;54.396;18.590;2022-07-11T02:27:42;15.50;99.90
16728;DHT22;8482;54.396;18.590;2022-07-11T02:30:09;15.50;99.90
16728;DHT22;8482;54.396;18.590;2022-07-11T02:32:36;15.50;99.90
16728;DHT22;8482;54.396;18.590;2022-07-11T02:35:03;15.50;99.90
16728;DHT22;8482;54.396;18.590;2022-07-11T02:37:30;15.50;99.90
16728;DHT22;8482;54.396;18.590;2022-07-11T02:39:57;15.50;99.90
16728;DHT22;8482;54.396;18.590;2022-07-11T02:42:23;15.50;99.90
16728;DHT22;8482;54.396;18.590;2022-07-11T02:44:49;15.50;99.90
16728;DHT22;8482;54.396;18.590;2022-07-11T02:47:15;15.50;99.90
16728;DHT22;8482;54.396;18.590;2022-07-11T02:49:41;15.50;99.90
16728;DHT22;8482;54.396;18.590;2022-07-11T02:52:07;15.50;99.90
16728;DHT22;8482;54.396;18.590;2022-07-11T02:54:34;15.50;99.90
16728;DHT22;8482;54.396;18.590;2022-07-11T02:57:00;15.50;99.90
16728;DHT22;8482;54.396;18.590;2022-07-11T02:59:26;15.50;99.90
16728;DHT22;8482;54.396;18.590;2022-07-11T03:01:52;15.50;99.90
16728;DHT22;8482;54.396;18.590;2022-07-11T03:04:19;15.50;99.90
16728;DHT22;8482;54.396;18.590;2022-07-11T03:06:45;15.50;99.90
16728;DHT22;8482;54.396;18.590;2022-07-11T03:09:10;15.50;99.90
16728;DHT22;8482;54.396;18.590;2022-07-11T03:11:36;15.50;99.90
16728;DHT22;8482;54.396;18.590;2022-07-11T03:14:02;15.50;99.90
16728;DHT22;8482;54.396;18.590;2022-07-11T03:16:29;15.60;99.90
16728;DHT22;8482;54.396;18.590;2022-07-11T03:18:56;15.50;99.90
16728;DHT22;8482;54.396;18.590;2022-07-11T03:21:24;15.50;99.90
16728;DHT22;8482;54.396;18.590;2022-07-11T03:23:51;15.60;99.90
16728;DHT22;8482;54.396;18.590;2022-07-11T03:26:17;15.60;99.90
16728;DHT22;8482;54.396;18.590;2022-07-11T03:28:43;15.60;99.90
16728;DHT22;8482;54.396;18.590;2022-07-11T03:31:09;15.60;99.90
16728;DHT22;8482;54.396;18.590;2022-07-11T03:33:36;15.60;99.90
16728;DHT22;8482;54.396;18.590;2022-07-11T03:36:02;15.60;99.90
16728;DHT22;8482;54.396;18.590;2022-07-11T03:38:28;15.60;99.90
16728;DHT22;8482;54.396;18.590;2022-07-11T03:40:54;15.60;99.90
16728;DHT22;8482;54.396;18.590;2022-07-11T03:43:22;15.60;99.90
16728;DHT22;8482;54.396;18.590;2022-07-11T03:45:48;15.60;99.90
16728;DHT22;8482;54.396;18.590;2022-07-11T03:48:14;15.60;99.90
16728;DHT22;8482;54.396;18.590;2022-07-11T03:50:40;15.60;99.90
16728;DHT22;8482;54.396;18.590;2022-07-11T03:53:06;15.70;99.90
16728;DHT22;8482;54.396;18.590;2022-07-11T03:55:32;15.60;99.90
16728;DHT22;8482;54.396;18.590;2022-07-11T03:57:59;15.60;99.90
16728;DHT22;8482;54.396;18.590;2022-07-11T04:00:26;15.70;99.90
16728;DHT22;8482;54.396;18.590;2022-07-11T04:02:52;15.60;99.90
16728;DHT22;8482;54.396;18.590;2022-07-11T04:05:17;15.60;99.90
16728;DHT22;8482;54.396;18.590;2022-07-11T04:07:43;15.60;99.90
16728;DHT22;8482;54.396;18.590;2022-07-11T04:10:09;15.60;99.90
16728;DHT22;8482;54.396;18.590;2022-07-11T04:12:35;15.60;99.90
16728;DHT22;8482;54.396;18.590;2022-07-11T04:15:01;15.60;99.90
16728;DHT22;8482;54.396;18.590;2022-07-11T04:17:27;15.60;99.90
16728;DHT22;8482;54.396;18.590;2022-07-11T04:19:53;15.60;99.90
16728;DHT22;8482;54.396;18.590;2022-07-11T04:22:20;15.60;99.90
16728;DHT22;8482;54.396;18.590;2022-07-11T04:24:46;15.60;99.90
16728;DHT22;8482;54.396;18.590;2022-07-11T04:27:11;15.60;99.90
16728;DHT22;8482;54.396;18.590;2022-07-11T04:29:37;15.60;99.90
16728;DHT22;8482;54.396;18.590;2022-07-11T04:32:03;15.60;99.90
16728;DHT22;8482;54.396;18.590;2022-07-11T04:34:29;15.60;99.90
16728;DHT22;8482;54.396;18.590;2022-07-11T04:36:55;15.60;99.90
16728;DHT22;8482;54.396;18.590;2022-07-11T04:39:21;15.60;99.90
16728;DHT22;8482;54.396;18.590;2022-07-11T04:41:46;15.60;99.90
16728;DHT22;8482;54.396;18.590;2022-07-11T04:44:12;15.60;99.90
16728;DHT22;8482;54.396;18.590;2022-07-11T04:46:38;15.60;99.90
16728;DHT22;8482;54.396;18.590;2022-07-11T04:49:04;15.60;99.90
16728;DHT22;8482;54.396;18.590;2022-07-11T04:51:30;15.60;99.90
16728;DHT22;8482;54.396;18.590;2022-07-11T04:53:55;15.70;99.90
16728;DHT22;8482;54.396;18.590;2022-07-11T04:56:21;15.70;99.90
16728;DHT22;8482;54.396;18.590;2022-07-11T04:58:47;15.70;99.90
16728;DHT22;8482;54.396;18.590;2022-07-11T05:01:13;15.80;99.90
16728;DHT22;8482;54.396;18.590;2022-07-11T05:03:38;15.80;99.90
16728;DHT22;8482;54.396;18.590;2022-07-11T05:06:05;15.80;99.90
16728;DHT22;8482;54.396;18.590;2022-07-11T05:08:32;15.80;99.90
16728;DHT22;8482;54.396;18.590;2022-07-11T05:11:02;15.80;99.90
16728;DHT22;8482;54.396;18.590;2022-07-11T05:13:29;15.80;99.90
16728;DHT22;8482;54.396;18.590;2022-07-11T05:15:55;15.90;99.90
16728;DHT22;8482;54.396;18.590;2022-07-11T05:18:21;15.90;99.90
16728;DHT22;8482;54.396;18.590;2022-07-11T05:20:47;15.90;99.90
16728;DHT22;8482;54.396;18.590;2022-07-11T05:23:14;15.90;99.90
16728;DHT22;8482;54.396;18.590;2022-07-11T05:25:40;15.90;99.90
16728;DHT22;8482;54.396;18.590;2022-07-11T05:28:06;16.00;99.90
16728;DHT22;8482;54.396;18.590;2022-07-11T05:30:32;16.00;99.90
16728;DHT22;8482;54.396;18.590;2022-07-11T05:32:58;16.00;99.90
16728;DHT22;8482;54.396;18.590;2022-07-11T05:35:24;16.00;99.90
16728;DHT22;8482;54.396;18.590;2022-07-11T05:37:51;16.00;99.90
16728;DHT22;8482;54.396;18.590;2022-07-11T05:40:17;16.10;99.90
16728;DHT22;8482;54.396;18.590;2022-07-11T05:42:42;16.10;99.90
16728;DHT22;8482;54.396;18.590;2022-07-11T05:45:09;16.10;99.90
16728;DHT22;8482;54.396;18.590;2022-07-11T05:47:35;16.10;99.90
16728;DHT22;8482;54.396;18.590;2022-07-11T05:50:01;16.10;99.90
16728;DHT22;8482;54.396;18.590;2022-07-11T05:52:26;16.10;99.90
16728;DHT22;8482;54.396;18.590;2022-07-11T05:54:52;16.10;99.90
16728;DHT22;8482;54.396;18.590;2022-07-11T05:57:18;16.10;99.90
16728;DHT22;8482;54.396;18.590;2022-07-11T05:59:44;16.20;99.90
16728;DHT22;8482;54.396;18.590;2022-07-11T06:02:11;16.20;99.90
16728;DHT22;8482;54.396;18.590;2022-07-11T06:04:37;16.20;99.90
16728;DHT22;8482;54.396;18.590;2022-07-11T06:07:04;16.10;99.90
16728;DHT22;8482;54.396;18.590;2022-07-11T06:09:30;16.10;99.90
16728;DHT22;8482;54.396;18.590;2022-07-11T06:11:56;16.20;99.90
16728;DHT22;8482;54.396;18.590;2022-07-11T06:14:22;16.10;99.90
16728;DHT22;8482;54.396;18.590;2022-07-11T06:16:49;16.20;99.90
16728;DHT22;8482;54.396;18.590;2022-07-11T06:19:15;16.10;99.90
16728;DHT22;8482;54.396;18.590;2022-07-11T06:21:41;16.10;99.90
16728;DHT22;8482;54.396;18.590;2022-07-11T06:24:07;16.10;99.90
16728;DHT22;8482;54.396;18.590;2022-07-11T06:26:33;16.10;99.90
16728;DHT22;8482;54.396;18.590;2022-07-11T06:28:58;16.20;99.90
16728;DHT22;8482;54.396;18.590;2022-07-11T06:31:24;16.20;99.90
16728;DHT22;8482;54.396;18.590;2022-07-11T06:33:50;16.20;99.90
16728;DHT22;8482;54.396;18.590;2022-07-11T06:36:20;16.20;99.90
16728;DHT22;8482;54.396;18.590;2022-07-11T06:38:49;16.30;99.90
16728;DHT22;8482;54.396;18.590;2022-07-11T06:41:16;16.20;99.90
16728;DHT22;8482;54.396;18.590;2022-07-11T06:43:42;16.20;99.90
16728;DHT22;8482;54.396;18.590;2022-07-11T06:46:08;16.20;99.90
16728;DHT22;8482;54.396;18.590;2022-07-11T06:48:33;16.10;99.90
16728;DHT22;8482;54.396;18.590;2022-07-11T06:50:59;16.10;99.90
16728;DHT22;8482;54.396;18.590;2022-07-11T06:53:25;16.10;99.90
16728;DHT22;8482;54.396;18.590;2022-07-11T06:55:51;16.10;99.90
16728;DHT22;8482;54.396;18.590;2022-07-11T06:58:17;16.10;99.90
16728;DHT22;8482;54.396;18.590;2022-07-11T07:00:59;16.20;99.90
16728;DHT22;8482;54.396;18.590;2022-07-11T07:03:26;16.20;99.90
16728;DHT22;8482;54.396;18.590;2022-07-11T07:05:57;16.20;99.90
16728;DHT22;8482;54.396;18.590;2022-07-11T07:08:28;16.30;99.90
16728;DHT22;8482;54.396;18.590;2022-07-11T07:10:55;16.30;99.90
16728;DHT22;8482;54.396;18.590;2022-07-11T07:13:21;16.30;99.90
16728;DHT22;8482;54.396;18.590;2022-07-11T07:15:51;16.30;99.90
16728;DHT22;8482;54.396;18.590;2022-07-11T07:18:18;16.30;99.90
16728;DHT22;8482;54.396;18.590;2022-07-11T07:20:44;16.30;99.90
16728;DHT22;8482;54.396;18.590;2022-07-11T07:23:10;16.30;99.90
16728;DHT22;8482;54.396;18.590;2022-07-11T07:25:36;16.40;99.90
16728;DHT22;8482;54.396;18.590;2022-07-11T07:28:03;16.40;99.90
16728;DHT22;8482;54.396;18.590;2022-07-11T07:30:29;16.40;99.90
16728;DHT22;8482;54.396;18.590;2022-07-11T07:32:55;16.50;99.90
16728;DHT22;8482;54.396;18.590;2022-07-11T07:35:21;16.50;99.90
16728;DHT22;8482;54.396;18.590;2022-07-11T07:37:47;16.60;99.90
16728;DHT22;8482;54.396;18.590;2022-07-11T07:40:13;16.60;99.90
16728;DHT22;8482;54.396;18.590;2022-07-11T07:42:38;16.60;99.90
16728;DHT22;8482;54.396;18.590;2022-07-11T07:45:04;16.60;99.90
16728;DHT22;8482;54.396;18.590;2022-07-11T07:47:30;16.50;99.90
16728;DHT22;8482;54.396;18.590;2022-07-11T07:49:56;16.50;99.90
16728;DHT22;8482;54.396;18.590;2022-07-11T07:52:22;16.50;99.90
16728;DHT22;8482;54.396;18.590;2022-07-11T07:54:48;16.50;99.90
16728;DHT22;8482;54.396;18.590;2022-07-11T07:57:14;16.50;99.90
16728;DHT22;8482;54.396;18.590;2022-07-11T07:59:40;16.60;99.90
16728;DHT22;8482;54.396;18.590;2022-07-11T08:02:06;16.50;99.90
16728;DHT22;8482;54.396;18.590;2022-07-11T08:04:32;16.50;99.90
16728;DHT22;8482;54.396;18.590;2022-07-11T08:06:57;16.60;99.90
16728;DHT22;8482;54.396;18.590;2022-07-11T08:09:25;16.60;99.90
16728;DHT22;8482;54.396;18.590;2022-07-11T08:11:51;16.60;99.90
16728;DHT22;8482;54.396;18.590;2022-07-11T08:14:17;16.60;99.90
16728;DHT22;8482;54.396;18.590;2022-07-11T08:16:43;16.70;99.90
16728;DHT22;8482;54.396;18.590;2022-07-11T08:19:09;16.70;99.90
16728;DHT22;8482;54.396;18.590;2022-07-11T08:21:37;16.70;99.90
16728;DHT22;8482;54.396;18.590;2022-07-11T08:24:03;16.70;99.90
16728;DHT22;8482;54.396;18.590;2022-07-11T08:26:30;16.80;99.90
16728;DHT22;8482;54.396;18.590;2022-07-11T08:28:56;16.80;99.90
16728;DHT22;8482;54.396;18.590;2022-07-11T08:31:22;16.80;99.90
16728;DHT22;8482;54.396;18.590;2022-07-11T08:33:49;16.90;99.90
16728;DHT22;8482;54.396;18.590;2022-07-11T08:36:16;16.90;99.90
16728;DHT22;8482;54.396;18.590;2022-07-11T08:38:42;17.00;99.90
16728;DHT22;8482;54.396;18.590;2022-07-11T08:41:12;17.00;99.90
16728;DHT22;8482;54.396;18.590;2022-07-11T08:43:40;17.00;99.90
16728;DHT22;8482;54.396;18.590;2022-07-11T08:46:09;17.10;99.90
16728;DHT22;8482;54.396;18.590;2022-07-11T08:48:38;17.10;99.90
16728;DHT22;8482;54.396;18.590;2022-07-11T08:51:06;17.20;99.90
16728;DHT22;8482;54.396;18.590;2022-07-11T08:53:40;17.20;99.90
16728;DHT22;8482;54.396;18.590;2022-07-11T08:56:10;17.20;99.90
16728;DHT22;8482;54.396;18.590;2022-07-11T08:58:42;17.20;99.90
16728;DHT22;8482;54.396;18.590;2022-07-11T09:01:10;17.30;99.90
16728;DHT22;8482;54.396;18.590;2022-07-11T09:03:37;17.40;99.90
16728;DHT22;8482;54.396;18.590;2022-07-11T09:06:04;17.40;99.90
16728;DHT22;8482;54.396;18.590;2022-07-11T09:08:30;17.50;99.90
16728;DHT22;8482;54.396;18.590;2022-07-11T09:10:57;17.50;99.90
16728;DHT22;8482;54.396;18.590;2022-07-11T09:13:28;17.60;99.90
16728;DHT22;8482;54.396;18.590;2022-07-11T09:16:05;17.60;99.90
16728;DHT22;8482;54.396;18.590;2022-07-11T09:18:40;17.70;99.90
16728;DHT22;8482;54.396;18.590;2022-07-11T09:21:10;17.80;99.90
16728;DHT22;8482;54.396;18.590;2022-07-11T09:23:56;17.90;99.90
16728;DHT22;8482;54.396;18.590;2022-07-11T09:26:48;17.90;99.90
16728;DHT22;8482;54.396;18.590;2022-07-11T09:29:17;18.00;99.90
16728;DHT22;8482;54.396;18.590;2022-07-11T09:31:49;18.00;99.90
16728;DHT22;8482;54.396;18.590;2022-07-11T09:34:20;18.10;99.90
16728;DHT22;8482;54.396;18.590;2022-07-11T09:36:50;18.10;99.90
16728;DHT22;8482;54.396;18.590;2022-07-11T09:39:28;18.20;99.90
16728;DHT22;8482;54.396;18.590;2022-07-11T09:41:55;18.30;99.90
16728;DHT22;8482;54.396;18.590;2022-07-11T09:44:27;18.30;99.90
16728;DHT22;8482;54.396;18.590;2022-07-11T09:46:56;18.40;99.90
16728;DHT22;8482;54.396;18.590;2022-07-11T09:49:34;18.50;99.90
16728;DHT22;8482;54.396;18.590;2022-07-11T09:52:13;18.50;99.90
16728;DHT22;8482;54.396;18.590;2022-07-11T09:54:57;18.60;99.90
16728;DHT22;8482;54.396;18.590;2022-07-11T09:57:32;18.70;99.90
16728;DHT22;8482;54.396;18.590;2022-07-11T10:00:08;18.80;99.90
16728;DHT22;8482;54.396;18.590;2022-07-11T10:02:36;18.80;99.90
16728;DHT22;8482;54.396;18.590;2022-07-11T10:05:02;18.70;99.90
16728;DHT22;8482;54.396;18.590;2022-07-11T10:07:29;18.80;99.90
16728;DHT22;8482;54.396;18.590;2022-07-11T10:09:56;18.70;99.90
16728;DHT22;8482;54.396;18.590;2022-07-11T10:12:25;18.70;99.90
16728;DHT22;8482;54.396;18.590;2022-07-11T10:14:53;18.70;99.90
16728;DHT22;8482;54.396;18.590;2022-07-11T10:29:32;19.00;99.90
16728;DHT22;8482;54.396;18.590;2022-07-11T10:32:11;19.20;99.90
16728;DHT22;8482;54.396;18.590;2022-07-11T10:34:38;19.30;99.90
16728;DHT22;8482;54.396;18.590;2022-07-11T10:37:06;19.40;99.90
16728;DHT22;8482;54.396;18.590;2022-07-11T10:39:37;19.50;99.90
16728;DHT22;8482;54.396;18.590;2022-07-11T10:42:06;19.50;99.90
16728;DHT22;8482;54.396;18.590;2022-07-11T10:44:53;19.60;99.90
16728;DHT22;8482;54.396;18.590;2022-07-11T10:47:46;19.60;99.90
16728;DHT22;8482;54.396;18.590;2022-07-11T10:52:49;19.60;99.90
16728;DHT22;8482;54.396;18.590;2022-07-11T10:55:36;19.50;99.90
16728;DHT22;8482;54.396;18.590;2022-07-11T10:58:27;19.60;99.90
16728;DHT22;8482;54.396;18.590;2022-07-11T11:01:08;19.60;99.90
16728;DHT22;8482;54.396;18.590;2022-07-11T11:03:40;19.70;99.90
16728;DHT22;8482;54.396;18.590;2022-07-11T11:06:07;19.80;99.90
16728;DHT22;8482;54.396;18.590;2022-07-11T11:11:03;20.00;99.90
16728;DHT22;8482;54.396;18.590;2022-07-11T11:13:30;20.10;99.90
16728;DHT22;8482;54.396;18.590;2022-07-11T11:15:59;20.20;99.90
16728;DHT22;8482;54.396;18.590;2022-07-11T11:26:11;20.50;99.90
16728;DHT22;8482;54.396;18.590;2022-07-11T11:29:00;20.70;99.90
16728;DHT22;8482;54.396;18.590;2022-07-11T11:31:29;20.80;99.90
16728;DHT22;8482;54.396;18.590;2022-07-11T11:33:57;20.80;99.90
16728;DHT22;8482;54.396;18.590;2022-07-11T11:36:25;20.90;99.90
16728;DHT22;8482;54.396;18.590;2022-07-11T11:38:53;21.00;99.90
16728;DHT22;8482;54.396;18.590;2022-07-11T11:41:30;21.00;99.90
16728;DHT22;8482;54.396;18.590;2022-07-11T11:43:58;21.20;99.90
16728;DHT22;8482;54.396;18.590;2022-07-11T11:46:28;21.30;99.90
16728;DHT22;8482;54.396;18.590;2022-07-11T11:48:59;21.40;99.90
16728;DHT22;8482;54.396;18.590;2022-07-11T11:51:30;21.50;99.40
16728;DHT22;8482;54.396;18.590;2022-07-11T11:54:01;21.60;99.20
16728;DHT22;8482;54.396;18.590;2022-07-11T11:56:35;21.70;98.80
16728;DHT22;8482;54.396;18.590;2022-07-11T11:59:07;21.80;98.40
16728;DHT22;8482;54.396;18.590;2022-07-11T12:01:43;21.90;97.90
16728;DHT22;8482;54.396;18.590;2022-07-11T12:04:16;21.90;97.50
16728;DHT22;8482;54.396;18.590;2022-07-11T12:06:44;21.90;97.50
16728;DHT22;8482;54.396;18.590;2022-07-11T12:09:14;22.00;97.60
16728;DHT22;8482;54.396;18.590;2022-07-11T12:11:43;22.00;97.60
16728;DHT22;8482;54.396;18.590;2022-07-11T12:14:13;22.10;97.60
16728;DHT22;8482;54.396;18.590;2022-07-11T12:16:45;22.20;97.60
16728;DHT22;8482;54.396;18.590;2022-07-11T12:19:22;22.30;97.50
16728;DHT22;8482;54.396;18.590;2022-07-11T12:21:53;22.40;96.90
16728;DHT22;8482;54.396;18.590;2022-07-11T12:24:24;22.50;96.70
16728;DHT22;8482;54.396;18.590;2022-07-11T12:26:54;22.50;96.50
16728;DHT22;8482;54.396;18.590;2022-07-11T12:29:22;22.50;96.20
16728;DHT22;8482;54.396;18.590;2022-07-11T12:31:57;22.60;96.40
16728;DHT22;8482;54.396;18.590;2022-07-11T12:39:36;22.90;96.10
16728;DHT22;8482;54.396;18.590;2022-07-11T12:44:57;23.10;95.40
16728;DHT22;8482;54.396;18.590;2022-07-11T12:47:28;23.00;94.60
16728;DHT22;8482;54.396;18.590;2022-07-11T12:49:55;23.00;93.90
16728;DHT22;8482;54.396;18.590;2022-07-11T12:52:22;22.80;93.40
16728;DHT22;8482;54.396;18.590;2022-07-11T12:54:48;22.80;93.80
16728;DHT22;8482;54.396;18.590;2022-07-11T12:57:17;22.70;94.10
16728;DHT22;8482;54.396;18.590;2022-07-11T12:59:46;22.80;94.00
16728;DHT22;8482;54.396;18.590;2022-07-11T13:02:12;22.80;93.80
16728;DHT22;8482;54.396;18.590;2022-07-11T13:07:32;22.60;93.70
16728;DHT22;8482;54.396;18.590;2022-07-11T13:10:22;22.70;93.60
16728;DHT22;8482;54.396;18.590;2022-07-11T13:12:53;22.70;93.80
16728;DHT22;8482;54.396;18.590;2022-07-11T13:15:21;22.70;94.00
16728;DHT22;8482;54.396;18.590;2022-07-11T13:17:53;22.70;94.30
16728;DHT22;8482;54.396;18.590;2022-07-11T13:20:26;22.60;94.40
16728;DHT22;8482;54.396;18.590;2022-07-11T13:22:53;22.50;94.60
16728;DHT22;8482;54.396;18.590;2022-07-11T13:25:20;22.40;94.80
16728;DHT22;8482;54.396;18.590;2022-07-11T13:27:48;22.30;94.90
16728;DHT22;8482;54.396;18.590;2022-07-11T13:30:17;22.20;95.40
16728;DHT22;8482;54.396;18.590;2022-07-11T13:32:47;22.10;95.90
16728;DHT22;8482;54.396;18.590;2022-07-11T13:35:14;22.00;96.40
16728;DHT22;8482;54.396;18.590;2022-07-11T13:37:40;22.00;96.80
16728;DHT22;8482;54.396;18.590;2022-07-11T13:40:11;21.90;96.90
16728;DHT22;8482;54.396;18.590;2022-07-11T13:42:39;21.80;97.10
16728;DHT22;8482;54.396;18.590;2022-07-11T13:45:07;21.70;97.40
16728;DHT22;8482;54.396;18.590;2022-07-11T13:47:34;21.70;97.50
16728;DHT22;8482;54.396;18.590;2022-07-11T13:50:00;21.60;97.50
16728;DHT22;8482;54.396;18.590;2022-07-11T13:52:27;21.60;97.60
16728;DHT22;8482;54.396;18.590;2022-07-11T13:54:54;21.50;97.70
16728;DHT22;8482;54.396;18.590;2022-07-11T13:57:20;21.50;97.80
16728;DHT22;8482;54.396;18.590;2022-07-11T13:59:46;21.40;97.90
16728;DHT22;8482;54.396;18.590;2022-07-11T14:02:13;21.30;97.80
16728;DHT22;8482;54.396;18.590;2022-07-11T14:04:38;21.30;97.80
16728;DHT22;8482;54.396;18.590;2022-07-11T14:07:07;21.20;98.00
16728;DHT22;8482;54.396;18.590;2022-07-11T14:09:34;21.20;98.20
16728;DHT22;8482;54.396;18.590;2022-07-11T14:12:00;21.20;98.40
16728;DHT22;8482;54.396;18.590;2022-07-11T14:14:27;21.30;98.50
16728;DHT22;8482;54.396;18.590;2022-07-11T14:16:54;21.50;98.80
16728;DHT22;8482;54.396;18.590;2022-07-11T14:19:20;21.60;98.40
16728;DHT22;8482;54.396;18.590;2022-07-11T14:21:46;21.80;98.20
16728;DHT22;8482;54.396;18.590;2022-07-11T14:24:12;21.90;97.90
16728;DHT22;8482;54.396;18.590;2022-07-11T14:26:38;22.00;97.60
16728;DHT22;8482;54.396;18.590;2022-07-11T14:29:05;22.00;97.20
16728;DHT22;8482;54.396;18.590;2022-07-11T14:31:31;22.10;97.20
16728;DHT22;8482;54.396;18.590;2022-07-11T14:33:58;22.30;97.60
16728;DHT22;8482;54.396;18.590;2022-07-11T14:36:24;22.40;97.50
16728;DHT22;8482;54.396;18.590;2022-07-11T14:38:51;22.40;97.10
16728;DHT22;8482;54.396;18.590;2022-07-11T14:41:18;22.40;96.80
16728;DHT22;8482;54.396;18.590;2022-07-11T14:43:44;22.40;96.80
16728;DHT22;8482;54.396;18.590;2022-07-11T14:46:12;22.30;96.90
16728;DHT22;8482;54.396;18.590;2022-07-11T14:48:38;22.30;97.10
16728;DHT22;8482;54.396;18.590;2022-07-11T14:51:05;22.30;97.20
16728;DHT22;8482;54.396;18.590;2022-07-11T14:53:31;22.30;97.20
16728;DHT22;8482;54.396;18.590;2022-07-11T14:55:57;22.40;97.30
16728;DHT22;8482;54.396;18.590;2022-07-11T14:58:23;22.60;97.30
16728;DHT22;8482;54.396;18.590;2022-07-11T15:00:49;22.60;97.00
16728;DHT22;8482;54.396;18.590;2022-07-11T15:03:15;22.70;96.70
16728;DHT22;8482;54.396;18.590;2022-07-11T15:06:00;22.70;96.30
16728;DHT22;8482;54.396;18.590;2022-07-11T15:08:26;22.70;95.60
16728;DHT22;8482;54.396;18.590;2022-07-11T15:11:10;22.70;94.40
16728;DHT22;8482;54.396;18.590;2022-07-11T15:13:55;22.60;92.80
16728;DHT22;8482;54.396;18.590;2022-07-11T15:16:21;22.60;91.40
16728;DHT22;8482;54.396;18.590;2022-07-11T15:18:47;22.60;91.10
16728;DHT22;8482;54.396;18.590;2022-07-11T15:21:13;22.60;91.10
16728;DHT22;8482;54.396;18.590;2022-07-11T15:23:39;22.70;91.10
16728;DHT22;8482;54.396;18.590;2022-07-11T15:26:08;22.70;90.70
16728;DHT22;8482;54.396;18.590;2022-07-11T15:28:34;22.90;90.40
16728;DHT22;8482;54.396;18.590;2022-07-11T15:31:00;22.90;90.40
16728;DHT22;8482;54.396;18.590;2022-07-11T15:33:26;23.10;90.10
16728;DHT22;8482;54.396;18.590;2022-07-11T15:35:52;23.20;90.30
16728;DHT22;8482;54.396;18.590;2022-07-11T15:38:18;23.30;89.90
16728;DHT22;8482;54.396;18.590;2022-07-11T15:40:45;23.50;88.70
16728;DHT22;8482;54.396;18.590;2022-07-11T15:43:12;23.50;87.20
16728;DHT22;8482;54.396;18.590;2022-07-11T15:45:39;23.60;86.60
16728;DHT22;8482;54.396;18.590;2022-07-11T15:48:06;23.80;87.90
16728;DHT22;8482;54.396;18.590;2022-07-11T15:50:33;23.90;87.40
16728;DHT22;8482;54.396;18.590;2022-07-11T15:53:00;24.00;86.90
16728;DHT22;8482;54.396;18.590;2022-07-11T15:55:26;24.20;85.60
16728;DHT22;8482;54.396;18.590;2022-07-11T15:57:53;24.30;84.00
16728;DHT22;8482;54.396;18.590;2022-07-11T16:00:19;24.40;83.20
16728;DHT22;8482;54.396;18.590;2022-07-11T16:02:46;24.40;82.30
16728;DHT22;8482;54.396;18.590;2022-07-11T16:05:15;24.40;82.20
16728;DHT22;8482;54.396;18.590;2022-07-11T16:07:41;24.50;83.30
16728;DHT22;8482;54.396;18.590;2022-07-11T16:10:08;24.50;83.10
16728;DHT22;8482;54.396;18.590;2022-07-11T16:12:34;24.60;82.60